sensor_id;sensor_type;location;lat;lon;timestamp;temperature;humidity
53748;DHT22;39655;53.210;5.768;2023-01-08T00:00:44;8.90;95.20
53748;DHT22;39655;53.210;5.768;2023-01-08T00:03:10;9.00;95.30
53748;DHT22;39655;53.210;5.768;2023-01-08T00:05:36;9.10;95.20
53748;DHT22;39655;53.210;5.768;2023-01-08T00:08:02;9.10;95.20
53748;DHT22;39655;53.210;5.768;2023-01-08T00:10:28;9.20;95.00
53748;DHT22;39655;53.210;5.768;2023-01-08T00:12:55;9.20;94.90
53748;DHT22;39655;53.210;5.768;2023-01-08T00:15:21;9.20;94.80
53748;DHT22;39655;53.210;5.768;2023-01-08T00:17:47;9.30;94.70
53748;DHT22;39655;53.210;5.768;2023-01-08T00:20:13;9.30;94.50
53748;DHT22;39655;53.210;5.768;2023-01-08T00:22:38;9.40;94.40
53748;DHT22;39655;53.210;5.768;2023-01-08T00:25:04;9.40;94.20
53748;DHT22;39655;53.210;5.768;2023-01-08T00:27:30;9.30;94.10
53748;DHT22;39655;53.210;5.768;2023-01-08T00:29:56;9.40;93.90
53748;DHT22;39655;53.210;5.768;2023-01-08T00:32:21;9.40;93.50
53748;DHT22;39655;53.210;5.768;2023-01-08T00:34:47;9.40;93.50
53748;DHT22;39655;53.210;5.768;2023-01-08T00:37:14;9.40;93.40
53748;DHT22;39655;53.210;5.768;2023-01-08T00:39:43;9.40;93.10
53748;DHT22;39655;53.210;5.768;2023-01-08T00:42:09;9.40;93.10
53748;DHT22;39655;53.210;5.768;2023-01-08T00:44:35;9.40;92.90
53748;DHT22;39655;53.210;5.768;2023-01-08T00:47:00;9.40;92.90
53748;DHT22;39655;53.210;5.768;2023-01-08T00:49:26;9.30;92.80
53748;DHT22;39655;53.210;5.768;2023-01-08T00:51:52;9.30;92.70
53748;DHT22;39655;53.210;5.768;2023-01-08T00:54:18;9.30;92.60
53748;DHT22;39655;53.210;5.768;2023-01-08T00:56:43;9.20;92.40
53748;DHT22;39655;53.210;5.768;2023-01-08T00:59:09;9.20;91.90
53748;DHT22;39655;53.210;5.768;2023-01-08T01:01:35;9.20;91.50
53748;DHT22;39655;53.210;5.768;2023-01-08T01:04:01;9.20;91.50
53748;DHT22;39655;53.210;5.768;2023-01-08T01:06:27;9.10;91.40
53748;DHT22;39655;53.210;5.768;2023-01-08T01:08:53;9.10;91.50
53748;DHT22;39655;53.210;5.768;2023-01-08T01:11:21;9.00;91.40
53748;DHT22;39655;53.210;5.768;2023-01-08T01:13:48;9.00;91.40
53748;DHT22;39655;53.210;5.768;2023-01-08T01:16:13;8.90;91.40
53748;DHT22;39655;53.210;5.768;2023-01-08T01:18:39;8.90;91.50
53748;DHT22;39655;53.210;5.768;2023-01-08T01:21:14;8.80;91.50
53748;DHT22;39655;53.210;5.768;2023-01-08T01:23:43;8.80;91.50
53748;DHT22;39655;53.210;5.768;2023-01-08T01:26:16;8.70;91.70
53748;DHT22;39655;53.210;5.768;2023-01-08T01:28:42;8.70;92.00
53748;DHT22;39655;53.210;5.768;2023-01-08T01:31:10;8.60;92.00
53748;DHT22;39655;53.210;5.768;2023-01-08T01:33:37;8.60;92.10
53748;DHT22;39655;53.210;5.768;2023-01-08T01:36:05;8.50;92.20
53748;DHT22;39655;53.210;5.768;2023-01-08T01:38:31;8.50;92.20
53748;DHT22;39655;53.210;5.768;2023-01-08T01:40:57;8.40;92.20
53748;DHT22;39655;53.210;5.768;2023-01-08T01:43:40;8.40;92.20
53748;DHT22;39655;53.210;5.768;2023-01-08T01:46:38;8.30;92.30
53748;DHT22;39655;53.210;5.768;2023-01-08T01:49:09;8.30;92.40
53748;DHT22;39655;53.210;5.768;2023-01-08T01:51:38;8.20;92.40
53748;DHT22;39655;53.210;5.768;2023-01-08T01:54:08;8.20;92.50
53748;DHT22;39655;53.210;5.768;2023-01-08T01:56:35;8.20;92.50
53748;DHT22;39655;53.210;5.768;2023-01-08T01:59:02;8.20;92.50
53748;DHT22;39655;53.210;5.768;2023-01-08T02:01:29;8.20;92.50
53748;DHT22;39655;53.210;5.768;2023-01-08T02:03:55;8.20;92.30
53748;DHT22;39655;53.210;5.768;2023-01-08T02:06:49;8.30;92.20
53748;DHT22;39655;53.210;5.768;2023-01-08T02:12:04;8.30;92.30
53748;DHT22;39655;53.210;5.768;2023-01-08T02:15:04;8.30;92.40
53748;DHT22;39655;53.210;5.768;2023-01-08T02:17:54;8.30;92.20
53748;DHT22;39655;53.210;5.768;2023-01-08T02:20:26;8.30;92.20
53748;DHT22;39655;53.210;5.768;2023-01-08T02:23:00;8.20;92.00
53748;DHT22;39655;53.210;5.768;2023-01-08T02:28:25;8.30;91.60
53748;DHT22;39655;53.210;5.768;2023-01-08T02:30:51;8.30;91.60
53748;DHT22;39655;53.210;5.768;2023-01-08T02:33:17;8.20;91.70
53748;DHT22;39655;53.210;5.768;2023-01-08T02:35:54;8.20;91.50
53748;DHT22;39655;53.210;5.768;2023-01-08T02:38:37;8.30;91.60
53748;DHT22;39655;53.210;5.768;2023-01-08T02:41:09;8.20;91.70
53748;DHT22;39655;53.210;5.768;2023-01-08T02:43:43;8.30;91.50
53748;DHT22;39655;53.210;5.768;2023-01-08T02:46:13;8.20;91.60
53748;DHT22;39655;53.210;5.768;2023-01-08T02:48:47;8.20;91.60
53748;DHT22;39655;53.210;5.768;2023-01-08T02:51:17;8.20;91.70
53748;DHT22;39655;53.210;5.768;2023-01-08T02:53:47;8.20;91.80
53748;DHT22;39655;53.210;5.768;2023-01-08T02:56:21;8.20;91.80
53748;DHT22;39655;53.210;5.768;2023-01-08T02:58:49;8.20;91.70
53748;DHT22;39655;53.210;5.768;2023-01-08T03:01:16;8.20;91.70
53748;DHT22;39655;53.210;5.768;2023-01-08T03:03:46;8.20;91.50
53748;DHT22;39655;53.210;5.768;2023-01-08T03:06:17;8.20;91.60
53748;DHT22;39655;53.210;5.768;2023-01-08T03:08:46;8.20;91.60
53748;DHT22;39655;53.210;5.768;2023-01-08T03:11:14;8.20;91.60
53748;DHT22;39655;53.210;5.768;2023-01-08T03:13:48;8.20;91.60
53748;DHT22;39655;53.210;5.768;2023-01-08T03:16:17;8.20;91.50
53748;DHT22;39655;53.210;5.768;2023-01-08T03:18:48;8.20;91.40
53748;DHT22;39655;53.210;5.768;2023-01-08T03:21:17;8.20;91.40
53748;DHT22;39655;53.210;5.768;2023-01-08T03:23:45;8.20;91.40
53748;DHT22;39655;53.210;5.768;2023-01-08T03:26:14;8.20;91.50
53748;DHT22;39655;53.210;5.768;2023-01-08T03:28:45;8.10;91.50
53748;DHT22;39655;53.210;5.768;2023-01-08T03:31:14;8.10;91.70
53748;DHT22;39655;53.210;5.768;2023-01-08T03:33:42;8.00;91.80
53748;DHT22;39655;53.210;5.768;2023-01-08T03:36:14;8.00;92.20
53748;DHT22;39655;53.210;5.768;2023-01-08T03:38:42;7.90;92.20
53748;DHT22;39655;53.210;5.768;2023-01-08T03:41:12;8.00;92.70
53748;DHT22;39655;53.210;5.768;2023-01-08T03:43:39;7.90;92.70
53748;DHT22;39655;53.210;5.768;2023-01-08T03:46:18;7.90;92.80
53748;DHT22;39655;53.210;5.768;2023-01-08T03:48:45;7.80;93.00
53748;DHT22;39655;53.210;5.768;2023-01-08T03:51:11;7.80;93.00
53748;DHT22;39655;53.210;5.768;2023-01-08T03:53:37;7.90;93.40
53748;DHT22;39655;53.210;5.768;2023-01-08T03:56:03;7.90;93.50
53748;DHT22;39655;53.210;5.768;2023-01-08T03:58:28;7.90;93.70
53748;DHT22;39655;53.210;5.768;2023-01-08T04:00:57;7.90;93.80
53748;DHT22;39655;53.210;5.768;2023-01-08T04:03:22;7.90;93.80
53748;DHT22;39655;53.210;5.768;2023-01-08T04:05:49;8.00;93.80
53748;DHT22;39655;53.210;5.768;2023-01-08T04:08:14;8.00;93.80
53748;DHT22;39655;53.210;5.768;2023-01-08T04:10:40;8.00;93.80
53748;DHT22;39655;53.210;5.768;2023-01-08T04:13:06;8.00;93.80
53748;DHT22;39655;53.210;5.768;2023-01-08T04:15:32;7.90;93.80
53748;DHT22;39655;53.210;5.768;2023-01-08T04:17:58;7.90;93.70
53748;DHT22;39655;53.210;5.768;2023-01-08T04:20:23;7.90;93.70
53748;DHT22;39655;53.210;5.768;2023-01-08T04:22:52;7.80;93.70
53748;DHT22;39655;53.210;5.768;2023-01-08T04:25:18;7.90;93.90
53748;DHT22;39655;53.210;5.768;2023-01-08T04:27:44;7.80;93.90
53748;DHT22;39655;53.210;5.768;2023-01-08T04:30:10;7.90;94.00
53748;DHT22;39655;53.210;5.768;2023-01-08T04:32:36;7.80;94.10
53748;DHT22;39655;53.210;5.768;2023-01-08T04:35:02;7.80;94.20
53748;DHT22;39655;53.210;5.768;2023-01-08T04:37:27;7.80;94.40
53748;DHT22;39655;53.210;5.768;2023-01-08T04:39:53;7.80;94.50
53748;DHT22;39655;53.210;5.768;2023-01-08T04:42:19;7.80;94.50
53748;DHT22;39655;53.210;5.768;2023-01-08T04:44:45;7.80;94.60
53748;DHT22;39655;53.210;5.768;2023-01-08T04:47:10;7.80;94.80
53748;DHT22;39655;53.210;5.768;2023-01-08T04:49:38;7.80;94.80
53748;DHT22;39655;53.210;5.768;2023-01-08T04:52:04;7.80;94.80
53748;DHT22;39655;53.210;5.768;2023-01-08T04:54:30;7.80;94.90
53748;DHT22;39655;53.210;5.768;2023-01-08T04:56:55;7.80;94.90
53748;DHT22;39655;53.210;5.768;2023-01-08T04:59:21;7.90;94.80
53748;DHT22;39655;53.210;5.768;2023-01-08T05:01:47;7.90;94.90
53748;DHT22;39655;53.210;5.768;2023-01-08T05:04:12;7.90;94.80
53748;DHT22;39655;53.210;5.768;2023-01-08T05:06:38;7.90;94.80
53748;DHT22;39655;53.210;5.768;2023-01-08T05:09:04;7.90;94.80
53748;DHT22;39655;53.210;5.768;2023-01-08T05:11:29;7.80;94.80
53748;DHT22;39655;53.210;5.768;2023-01-08T05:13:55;7.80;94.90
53748;DHT22;39655;53.210;5.768;2023-01-08T05:16:22;7.90;94.90
53748;DHT22;39655;53.210;5.768;2023-01-08T05:18:48;7.80;94.80
53748;DHT22;39655;53.210;5.768;2023-01-08T05:21:14;7.90;94.80
53748;DHT22;39655;53.210;5.768;2023-01-08T05:23:44;7.90;94.70
53748;DHT22;39655;53.210;5.768;2023-01-08T05:26:11;7.90;94.60
53748;DHT22;39655;53.210;5.768;2023-01-08T05:28:37;7.90;94.40
53748;DHT22;39655;53.210;5.768;2023-01-08T05:31:02;7.90;94.30
53748;DHT22;39655;53.210;5.768;2023-01-08T05:33:28;7.90;94.20
53748;DHT22;39655;53.210;5.768;2023-01-08T05:35:54;7.90;94.10
53748;DHT22;39655;53.210;5.768;2023-01-08T05:38:21;7.90;94.00
53748;DHT22;39655;53.210;5.768;2023-01-08T05:40:46;7.90;93.90
53748;DHT22;39655;53.210;5.768;2023-01-08T05:43:12;7.90;93.90
53748;DHT22;39655;53.210;5.768;2023-01-08T05:45:38;7.90;93.80
53748;DHT22;39655;53.210;5.768;2023-01-08T05:48:05;7.90;93.60
53748;DHT22;39655;53.210;5.768;2023-01-08T05:50:31;7.90;93.60
53748;DHT22;39655;53.210;5.768;2023-01-08T05:52:57;7.90;93.50
53748;DHT22;39655;53.210;5.768;2023-01-08T05:55:24;7.90;93.30
53748;DHT22;39655;53.210;5.768;2023-01-08T05:57:49;7.90;93.00
53748;DHT22;39655;53.210;5.768;2023-01-08T06:00:15;7.90;93.00
53748;DHT22;39655;53.210;5.768;2023-01-08T06:02:47;7.90;92.80
53748;DHT22;39655;53.210;5.768;2023-01-08T06:05:13;7.90;92.80
53748;DHT22;39655;53.210;5.768;2023-01-08T06:07:39;7.80;92.50
53748;DHT22;39655;53.210;5.768;2023-01-08T06:10:05;7.80;92.50
53748;DHT22;39655;53.210;5.768;2023-01-08T06:12:30;7.80;92.30
53748;DHT22;39655;53.210;5.768;2023-01-08T06:14:56;7.80;92.30
53748;DHT22;39655;53.210;5.768;2023-01-08T06:17:22;7.80;92.10
53748;DHT22;39655;53.210;5.768;2023-01-08T06:19:47;7.80;92.10
53748;DHT22;39655;53.210;5.768;2023-01-08T06:22:13;7.70;92.10
53748;DHT22;39655;53.210;5.768;2023-01-08T06:24:39;7.70;92.10
53748;DHT22;39655;53.210;5.768;2023-01-08T06:27:04;7.60;92.10
53748;DHT22;39655;53.210;5.768;2023-01-08T06:29:30;7.60;92.10
53748;DHT22;39655;53.210;5.768;2023-01-08T06:31:56;7.60;92.10
53748;DHT22;39655;53.210;5.768;2023-01-08T06:34:21;7.60;92.20
53748;DHT22;39655;53.210;5.768;2023-01-08T06:36:56;7.60;92.10
53748;DHT22;39655;53.210;5.768;2023-01-08T06:39:22;7.60;92.00
53748;DHT22;39655;53.210;5.768;2023-01-08T06:41:47;7.60;92.00
53748;DHT22;39655;53.210;5.768;2023-01-08T06:44:13;7.50;91.90
53748;DHT22;39655;53.210;5.768;2023-01-08T06:46:39;7.50;91.90
53748;DHT22;39655;53.210;5.768;2023-01-08T06:49:05;7.50;91.90
53748;DHT22;39655;53.210;5.768;2023-01-08T06:51:31;7.50;91.90
53748;DHT22;39655;53.210;5.768;2023-01-08T06:53:57;7.50;91.90
53748;DHT22;39655;53.210;5.768;2023-01-08T06:56:22;7.50;91.70
53748;DHT22;39655;53.210;5.768;2023-01-08T06:58:48;7.50;91.70
53748;DHT22;39655;53.210;5.768;2023-01-08T07:01:15;7.40;91.70
53748;DHT22;39655;53.210;5.768;2023-01-08T07:03:41;7.40;91.70
53748;DHT22;39655;53.210;5.768;2023-01-08T07:06:15;7.40;91.50
53748;DHT22;39655;53.210;5.768;2023-01-08T07:08:42;7.40;91.50
53748;DHT22;39655;53.210;5.768;2023-01-08T07:11:07;7.40;91.50
53748;DHT22;39655;53.210;5.768;2023-01-08T07:13:33;7.40;91.50
53748;DHT22;39655;53.210;5.768;2023-01-08T07:16:04;7.40;91.50
53748;DHT22;39655;53.210;5.768;2023-01-08T07:18:31;7.40;91.50
53748;DHT22;39655;53.210;5.768;2023-01-08T07:20:56;7.40;91.60
53748;DHT22;39655;53.210;5.768;2023-01-08T07:23:22;7.40;91.70
53748;DHT22;39655;53.210;5.768;2023-01-08T07:25:48;7.40;91.80
53748;DHT22;39655;53.210;5.768;2023-01-08T07:28:13;7.40;91.80
53748;DHT22;39655;53.210;5.768;2023-01-08T07:30:39;7.40;91.70
53748;DHT22;39655;53.210;5.768;2023-01-08T07:33:05;7.40;91.80
53748;DHT22;39655;53.210;5.768;2023-01-08T07:35:31;7.40;91.80
53748;DHT22;39655;53.210;5.768;2023-01-08T07:37:56;7.30;91.70
53748;DHT22;39655;53.210;5.768;2023-01-08T07:40:22;7.40;91.80
53748;DHT22;39655;53.210;5.768;2023-01-08T07:42:59;7.40;91.80
53748;DHT22;39655;53.210;5.768;2023-01-08T07:45:29;7.30;91.80
53748;DHT22;39655;53.210;5.768;2023-01-08T07:47:58;7.30;91.90
53748;DHT22;39655;53.210;5.768;2023-01-08T07:50:24;7.30;92.10
53748;DHT22;39655;53.210;5.768;2023-01-08T07:52:50;7.30;92.20
53748;DHT22;39655;53.210;5.768;2023-01-08T07:55:16;7.30;92.40
53748;DHT22;39655;53.210;5.768;2023-01-08T07:57:41;7.30;92.50
53748;DHT22;39655;53.210;5.768;2023-01-08T08:00:07;7.30;92.60
53748;DHT22;39655;53.210;5.768;2023-01-08T08:02:33;7.30;92.70
53748;DHT22;39655;53.210;5.768;2023-01-08T08:05:00;7.30;92.90
53748;DHT22;39655;53.210;5.768;2023-01-08T08:07:28;7.20;92.90
53748;DHT22;39655;53.210;5.768;2023-01-08T08:09:54;7.30;93.10
53748;DHT22;39655;53.210;5.768;2023-01-08T08:12:20;7.20;93.10
53748;DHT22;39655;53.210;5.768;2023-01-08T08:14:45;7.30;93.00
53748;DHT22;39655;53.210;5.768;2023-01-08T08:17:11;7.30;93.00
53748;DHT22;39655;53.210;5.768;2023-01-08T08:19:37;7.30;93.00
53748;DHT22;39655;53.210;5.768;2023-01-08T08:22:03;7.30;92.90
53748;DHT22;39655;53.210;5.768;2023-01-08T08:24:28;7.30;92.90
53748;DHT22;39655;53.210;5.768;2023-01-08T08:26:54;7.30;92.90
53748;DHT22;39655;53.210;5.768;2023-01-08T08:29:20;7.30;92.80
53748;DHT22;39655;53.210;5.768;2023-01-08T08:31:45;7.30;92.80
53748;DHT22;39655;53.210;5.768;2023-01-08T08:34:11;7.30;92.90
53748;DHT22;39655;53.210;5.768;2023-01-08T08:36:37;7.30;92.90
53748;DHT22;39655;53.210;5.768;2023-01-08T08:39:02;7.30;92.90
53748;DHT22;39655;53.210;5.768;2023-01-08T08:41:28;7.20;92.90
53748;DHT22;39655;53.210;5.768;2023-01-08T08:43:54;7.30;93.00
53748;DHT22;39655;53.210;5.768;2023-01-08T08:46:20;7.20;93.10
53748;DHT22;39655;53.210;5.768;2023-01-08T08:48:46;7.20;93.10
53748;DHT22;39655;53.210;5.768;2023-01-08T08:51:12;7.20;93.10
53748;DHT22;39655;53.210;5.768;2023-01-08T08:53:38;7.20;93.10
53748;DHT22;39655;53.210;5.768;2023-01-08T08:56:04;7.20;93.10
53748;DHT22;39655;53.210;5.768;2023-01-08T08:58:30;7.20;93.30
53748;DHT22;39655;53.210;5.768;2023-01-08T09:01:00;7.20;93.30
53748;DHT22;39655;53.210;5.768;2023-01-08T09:03:26;7.20;93.40
53748;DHT22;39655;53.210;5.768;2023-01-08T09:05:52;7.20;93.60
53748;DHT22;39655;53.210;5.768;2023-01-08T09:08:20;7.20;93.80
53748;DHT22;39655;53.210;5.768;2023-01-08T09:10:46;7.30;93.70
53748;DHT22;39655;53.210;5.768;2023-01-08T09:13:11;7.30;93.60
53748;DHT22;39655;53.210;5.768;2023-01-08T09:15:37;7.30;93.60
53748;DHT22;39655;53.210;5.768;2023-01-08T09:18:03;7.30;93.60
53748;DHT22;39655;53.210;5.768;2023-01-08T09:20:29;7.40;93.50
53748;DHT22;39655;53.210;5.768;2023-01-08T09:22:59;7.40;93.50
53748;DHT22;39655;53.210;5.768;2023-01-08T09:25:25;7.40;93.40
53748;DHT22;39655;53.210;5.768;2023-01-08T09:28:03;7.50;93.30
53748;DHT22;39655;53.210;5.768;2023-01-08T09:30:30;7.50;93.20
53748;DHT22;39655;53.210;5.768;2023-01-08T09:33:00;7.50;93.20
53748;DHT22;39655;53.210;5.768;2023-01-08T09:35:26;7.60;93.00
53748;DHT22;39655;53.210;5.768;2023-01-08T09:37:53;7.60;92.70
53748;DHT22;39655;53.210;5.768;2023-01-08T09:40:54;7.60;92.40
53748;DHT22;39655;53.210;5.768;2023-01-08T09:43:18;7.60;92.30
53748;DHT22;39655;53.210;5.768;2023-01-08T09:45:49;7.70;92.20
53748;DHT22;39655;53.210;5.768;2023-01-08T09:48:17;7.70;92.10
53748;DHT22;39655;53.210;5.768;2023-01-08T09:50:46;7.70;92.00
53748;DHT22;39655;53.210;5.768;2023-01-08T09:53:14;7.70;91.90
53748;DHT22;39655;53.210;5.768;2023-01-08T09:55:41;7.70;91.80
53748;DHT22;39655;53.210;5.768;2023-01-08T09:58:33;7.70;91.50
53748;DHT22;39655;53.210;5.768;2023-01-08T10:01:01;7.80;91.50
53748;DHT22;39655;53.210;5.768;2023-01-08T10:03:36;7.80;91.40
53748;DHT22;39655;53.210;5.768;2023-01-08T10:06:14;7.80;91.20
53748;DHT22;39655;53.210;5.768;2023-01-08T10:08:40;7.90;91.10
53748;DHT22;39655;53.210;5.768;2023-01-08T10:11:07;7.90;90.90
53748;DHT22;39655;53.210;5.768;2023-01-08T10:13:36;7.90;90.90
53748;DHT22;39655;53.210;5.768;2023-01-08T10:16:10;7.90;90.80
53748;DHT22;39655;53.210;5.768;2023-01-08T10:18:42;8.00;90.60
53748;DHT22;39655;53.210;5.768;2023-01-08T10:21:12;8.00;90.50
53748;DHT22;39655;53.210;5.768;2023-01-08T10:23:51;8.00;90.10
53748;DHT22;39655;53.210;5.768;2023-01-08T10:26:35;8.10;90.20
53748;DHT22;39655;53.210;5.768;2023-01-08T10:31:45;8.10;90.20
53748;DHT22;39655;53.210;5.768;2023-01-08T10:34:30;8.10;90.30
53748;DHT22;39655;53.210;5.768;2023-01-08T10:37:00;8.10;90.10
53748;DHT22;39655;53.210;5.768;2023-01-08T10:39:38;8.10;89.80
53748;DHT22;39655;53.210;5.768;2023-01-08T10:42:05;8.10;89.90
53748;DHT22;39655;53.210;5.768;2023-01-08T10:44:31;8.20;89.60
53748;DHT22;39655;53.210;5.768;2023-01-08T10:46:59;8.10;89.90
53748;DHT22;39655;53.210;5.768;2023-01-08T10:49:30;8.10;89.50
53748;DHT22;39655;53.210;5.768;2023-01-08T10:51:58;8.20;89.30
53748;DHT22;39655;53.210;5.768;2023-01-08T10:54:36;8.20;89.40
53748;DHT22;39655;53.210;5.768;2023-01-08T10:57:25;8.20;89.30
53748;DHT22;39655;53.210;5.768;2023-01-08T10:59:55;8.20;89.10
53748;DHT22;39655;53.210;5.768;2023-01-08T11:04:49;8.30;88.80
53748;DHT22;39655;53.210;5.768;2023-01-08T11:07:19;8.30;88.70
53748;DHT22;39655;53.210;5.768;2023-01-08T11:09:48;8.40;88.70
53748;DHT22;39655;53.210;5.768;2023-01-08T11:12:33;8.40;88.60
53748;DHT22;39655;53.210;5.768;2023-01-08T11:15:00;8.40;88.50
53748;DHT22;39655;53.210;5.768;2023-01-08T11:17:27;8.40;88.20
53748;DHT22;39655;53.210;5.768;2023-01-08T11:19:53;8.50;88.40
53748;DHT22;39655;53.210;5.768;2023-01-08T11:22:23;8.50;88.10
53748;DHT22;39655;53.210;5.768;2023-01-08T11:24:50;8.50;88.10
53748;DHT22;39655;53.210;5.768;2023-01-08T11:27:30;8.50;88.30
53748;DHT22;39655;53.210;5.768;2023-01-08T11:37:55;8.60;88.10
53748;DHT22;39655;53.210;5.768;2023-01-08T11:45:52;8.70;88.00
53748;DHT22;39655;53.210;5.768;2023-01-08T11:51:06;8.70;87.80
53748;DHT22;39655;53.210;5.768;2023-01-08T11:56:19;8.80;87.30
53748;DHT22;39655;53.210;5.768;2023-01-08T12:16:10;9.00;86.90
53748;DHT22;39655;53.210;5.768;2023-01-08T12:27:41;9.10;86.40
53748;DHT22;39655;53.210;5.768;2023-01-08T12:36:19;9.20;86.20
53748;DHT22;39655;53.210;5.768;2023-01-08T12:39:02;9.20;86.00
53748;DHT22;39655;53.210;5.768;2023-01-08T12:41:31;9.10;85.90
53748;DHT22;39655;53.210;5.768;2023-01-08T12:44:04;9.10;86.20
53748;DHT22;39655;53.210;5.768;2023-01-08T12:46:41;9.20;86.20
53748;DHT22;39655;53.210;5.768;2023-01-08T12:49:12;9.10;86.00
53748;DHT22;39655;53.210;5.768;2023-01-08T12:52:01;9.10;86.20
53748;DHT22;39655;53.210;5.768;2023-01-08T13:00:02;9.10;86.40
53748;DHT22;39655;53.210;5.768;2023-01-08T13:02:50;9.10;86.50
53748;DHT22;39655;53.210;5.768;2023-01-08T13:08:26;9.10;86.50
53748;DHT22;39655;53.210;5.768;2023-01-08T13:10:54;9.10;86.40
53748;DHT22;39655;53.210;5.768;2023-01-08T13:13:36;9.10;86.70
53748;DHT22;39655;53.210;5.768;2023-01-08T13:18:35;9.30;85.70
53748;DHT22;39655;53.210;5.768;2023-01-08T13:21:02;9.30;85.20
53748;DHT22;39655;53.210;5.768;2023-01-08T13:23:30;9.30;85.00
53748;DHT22;39655;53.210;5.768;2023-01-08T13:26:03;9.40;84.70
53748;DHT22;39655;53.210;5.768;2023-01-08T13:28:40;9.30;84.10
53748;DHT22;39655;53.210;5.768;2023-01-08T13:33:38;9.30;84.40
53748;DHT22;39655;53.210;5.768;2023-01-08T13:39:21;9.20;84.30
53748;DHT22;39655;53.210;5.768;2023-01-08T13:41:59;9.20;84.60
53748;DHT22;39655;53.210;5.768;2023-01-08T13:44:32;9.20;84.90
53748;DHT22;39655;53.210;5.768;2023-01-08T13:47:17;9.20;84.60
53748;DHT22;39655;53.210;5.768;2023-01-08T13:49:47;9.20;84.60
53748;DHT22;39655;53.210;5.768;2023-01-08T13:55:51;9.20;84.60
53748;DHT22;39655;53.210;5.768;2023-01-08T13:58:18;9.10;84.70
53748;DHT22;39655;53.210;5.768;2023-01-08T14:00:47;9.10;84.70
53748;DHT22;39655;53.210;5.768;2023-01-08T14:03:43;9.10;84.40
53748;DHT22;39655;53.210;5.768;2023-01-08T14:06:19;9.10;84.60
53748;DHT22;39655;53.210;5.768;2023-01-08T14:08:57;9.10;84.80
53748;DHT22;39655;53.210;5.768;2023-01-08T14:11:27;9.00;85.00
53748;DHT22;39655;53.210;5.768;2023-01-08T14:13:54;9.00;85.00
53748;DHT22;39655;53.210;5.768;2023-01-08T14:16:20;9.00;85.10
53748;DHT22;39655;53.210;5.768;2023-01-08T14:18:50;9.10;84.80
53748;DHT22;39655;53.210;5.768;2023-01-08T14:21:20;9.10;85.00
53748;DHT22;39655;53.210;5.768;2023-01-08T14:23:48;9.10;84.50
53748;DHT22;39655;53.210;5.768;2023-01-08T14:26:28;9.10;84.90
53748;DHT22;39655;53.210;5.768;2023-01-08T14:28:56;9.10;84.70
53748;DHT22;39655;53.210;5.768;2023-01-08T14:31:24;9.10;84.80
53748;DHT22;39655;53.210;5.768;2023-01-08T14:33:56;9.00;85.10
53748;DHT22;39655;53.210;5.768;2023-01-08T14:36:22;9.00;85.40
53748;DHT22;39655;53.210;5.768;2023-01-08T14:38:48;8.90;85.60
53748;DHT22;39655;53.210;5.768;2023-01-08T14:41:31;8.90;85.70
53748;DHT22;39655;53.210;5.768;2023-01-08T14:44:19;8.90;85.90
53748;DHT22;39655;53.210;5.768;2023-01-08T14:46:45;8.80;86.30
53748;DHT22;39655;53.210;5.768;2023-01-08T14:49:32;8.80;86.70
53748;DHT22;39655;53.210;5.768;2023-01-08T14:52:10;8.70;86.80
53748;DHT22;39655;53.210;5.768;2023-01-08T14:54:39;8.70;87.20
53748;DHT22;39655;53.210;5.768;2023-01-08T14:57:05;8.70;87.10
53748;DHT22;39655;53.210;5.768;2023-01-08T14:59:33;8.70;87.10
53748;DHT22;39655;53.210;5.768;2023-01-08T15:02:14;8.70;87.00
53748;DHT22;39655;53.210;5.768;2023-01-08T15:04:43;8.60;87.10
53748;DHT22;39655;53.210;5.768;2023-01-08T15:07:19;8.60;87.40
53748;DHT22;39655;53.210;5.768;2023-01-08T15:09:59;8.60;87.50
53748;DHT22;39655;53.210;5.768;2023-01-08T15:12:29;8.60;87.60
53748;DHT22;39655;53.210;5.768;2023-01-08T15:14:56;8.50;87.70
53748;DHT22;39655;53.210;5.768;2023-01-08T15:17:32;8.40;87.90
53748;DHT22;39655;53.210;5.768;2023-01-08T15:19:58;8.40;88.00
53748;DHT22;39655;53.210;5.768;2023-01-08T15:22:26;8.40;88.20
53748;DHT22;39655;53.210;5.768;2023-01-08T15:25:03;8.30;88.30
53748;DHT22;39655;53.210;5.768;2023-01-08T15:27:30;8.30;88.60
53748;DHT22;39655;53.210;5.768;2023-01-08T15:29:56;8.20;88.70
53748;DHT22;39655;53.210;5.768;2023-01-08T15:32:31;8.20;88.80
53748;DHT22;39655;53.210;5.768;2023-01-08T15:34:59;8.20;88.80
53748;DHT22;39655;53.210;5.768;2023-01-08T15:37:25;8.10;88.90
53748;DHT22;39655;53.210;5.768;2023-01-08T15:39:51;8.10;88.90
53748;DHT22;39655;53.210;5.768;2023-01-08T15:42:30;8.10;88.90
53748;DHT22;39655;53.210;5.768;2023-01-08T15:45:21;8.00;89.00
53748;DHT22;39655;53.210;5.768;2023-01-08T15:47:47;8.00;89.00
53748;DHT22;39655;53.210;5.768;2023-01-08T15:50:13;7.90;89.20
53748;DHT22;39655;53.210;5.768;2023-01-08T15:52:40;7.90;89.30
53748;DHT22;39655;53.210;5.768;2023-01-08T15:55:35;7.90;89.60
53748;DHT22;39655;53.210;5.768;2023-01-08T15:58:02;7.90;89.70
53748;DHT22;39655;53.210;5.768;2023-01-08T16:00:28;8.00;89.90
53748;DHT22;39655;53.210;5.768;2023-01-08T16:02:54;8.00;89.90
53748;DHT22;39655;53.210;5.768;2023-01-08T16:05:22;8.00;90.00
53748;DHT22;39655;53.210;5.768;2023-01-08T16:07:50;8.00;89.90
53748;DHT22;39655;53.210;5.768;2023-01-08T16:10:19;8.00;89.80
53748;DHT22;39655;53.210;5.768;2023-01-08T16:12:45;8.00;89.80
53748;DHT22;39655;53.210;5.768;2023-01-08T16:15:12;7.90;89.70
53748;DHT22;39655;53.210;5.768;2023-01-08T16:17:39;7.90;89.80
53748;DHT22;39655;53.210;5.768;2023-01-08T16:20:06;7.90;89.80
53748;DHT22;39655;53.210;5.768;2023-01-08T16:22:32;7.80;89.80
53748;DHT22;39655;53.210;5.768;2023-01-08T16:25:01;7.80;89.90
53748;DHT22;39655;53.210;5.768;2023-01-08T16:27:28;7.80;89.90
53748;DHT22;39655;53.210;5.768;2023-01-08T16:29:54;7.80;90.00
53748;DHT22;39655;53.210;5.768;2023-01-08T16:32:20;7.80;90.00
53748;DHT22;39655;53.210;5.768;2023-01-08T16:34:46;7.80;90.00
53748;DHT22;39655;53.210;5.768;2023-01-08T16:37:11;7.80;90.10
53748;DHT22;39655;53.210;5.768;2023-01-08T16:39:37;7.80;90.00
53748;DHT22;39655;53.210;5.768;2023-01-08T16:42:03;7.80;89.90
53748;DHT22;39655;53.210;5.768;2023-01-08T16:44:29;7.80;89.80
53748;DHT22;39655;53.210;5.768;2023-01-08T16:46:57;7.80;89.80
53748;DHT22;39655;53.210;5.768;2023-01-08T16:49:25;7.80;89.70
53748;DHT22;39655;53.210;5.768;2023-01-08T16:51:52;7.80;89.70
53748;DHT22;39655;53.210;5.768;2023-01-08T16:54:18;7.80;89.70
53748;DHT22;39655;53.210;5.768;2023-01-08T16:56:47;7.70;89.70
53748;DHT22;39655;53.210;5.768;2023-01-08T16:59:12;7.70;89.80
53748;DHT22;39655;53.210;5.768;2023-01-08T17:01:38;7.70;89.80
53748;DHT22;39655;53.210;5.768;2023-01-08T17:04:04;7.60;89.80
53748;DHT22;39655;53.210;5.768;2023-01-08T17:06:30;7.60;89.90
53748;DHT22;39655;53.210;5.768;2023-01-08T17:08:58;7.60;89.90
53748;DHT22;39655;53.210;5.768;2023-01-08T17:11:27;7.60;90.00
53748;DHT22;39655;53.210;5.768;2023-01-08T17:13:53;7.60;90.00
53748;DHT22;39655;53.210;5.768;2023-01-08T17:16:19;7.50;90.00
53748;DHT22;39655;53.210;5.768;2023-01-08T17:18:45;7.50;89.90